sensor_id;sensor_type;location;lat;lon;timestamp;temperature;humidity
16437;DHT22;8328;52.206;21.006;2023-02-28T00:01:22;-0.60;99.90
16437;DHT22;8328;52.206;21.006;2023-02-28T00:03:48;-0.60;99.90
16437;DHT22;8328;52.206;21.006;2023-02-28T00:06:14;-0.60;99.90
16437;DHT22;8328;52.206;21.006;2023-02-28T00:08:44;-0.60;99.90
16437;DHT22;8328;52.206;21.006;2023-02-28T00:11:13;-0.60;99.90
16437;DHT22;8328;52.206;21.006;2023-02-28T00:13:41;-0.60;99.90
16437;DHT22;8328;52.206;21.006;2023-02-28T00:16:10;-0.60;99.90
16437;DHT22;8328;52.206;21.006;2023-02-28T00:18:37;-1.60;99.90
16437;DHT22;8328;52.206;21.006;2023-02-28T00:21:03;-0.60;99.90
16437;DHT22;8328;52.206;21.006;2023-02-28T00:23:29;-0.60;99.90
16437;DHT22;8328;52.206;21.006;2023-02-28T00:25:56;-0.60;99.90
16437;DHT22;8328;52.206;21.006;2023-02-28T00:28:22;-0.70;99.90
16437;DHT22;8328;52.206;21.006;2023-02-28T00:30:48;-0.70;99.90
16437;DHT22;8328;52.206;21.006;2023-02-28T00:33:14;-0.70;99.90
16437;DHT22;8328;52.206;21.006;2023-02-28T00:35:40;-0.70;99.90
16437;DHT22;8328;52.206;21.006;2023-02-28T00:38:06;-0.70;99.90
16437;DHT22;8328;52.206;21.006;2023-02-28T00:40:32;-0.70;99.90
16437;DHT22;8328;52.206;21.006;2023-02-28T00:42:58;-0.70;99.90
16437;DHT22;8328;52.206;21.006;2023-02-28T00:45:23;-0.80;99.90
16437;DHT22;8328;52.206;21.006;2023-02-28T00:47:49;-0.90;99.90
16437;DHT22;8328;52.206;21.006;2023-02-28T00:50:19;-0.80;99.90
16437;DHT22;8328;52.206;21.006;2023-02-28T00:52:46;-0.90;99.90
16437;DHT22;8328;52.206;21.006;2023-02-28T00:55:12;-0.90;99.90
16437;DHT22;8328;52.206;21.006;2023-02-28T00:57:38;-0.90;99.90
16437;DHT22;8328;52.206;21.006;2023-02-28T01:00:05;-0.80;99.90
16437;DHT22;8328;52.206;21.006;2023-02-28T01:02:31;-0.80;99.90
16437;DHT22;8328;52.206;21.006;2023-02-28T01:04:57;-1.00;99.90
16437;DHT22;8328;52.206;21.006;2023-02-28T01:07:23;-0.90;99.90
16437;DHT22;8328;52.206;21.006;2023-02-28T01:09:49;-1.30;99.90
16437;DHT22;8328;52.206;21.006;2023-02-28T01:12:15;-0.90;99.90
16437;DHT22;8328;52.206;21.006;2023-02-28T01:14:41;-0.90;99.90
16437;DHT22;8328;52.206;21.006;2023-02-28T01:17:08;-0.90;99.90
16437;DHT22;8328;52.206;21.006;2023-02-28T01:19:34;-0.90;99.90
16437;DHT22;8328;52.206;21.006;2023-02-28T01:22:02;-0.90;99.90
16437;DHT22;8328;52.206;21.006;2023-02-28T01:24:28;-0.90;99.90
16437;DHT22;8328;52.206;21.006;2023-02-28T01:26:54;-0.90;99.90
16437;DHT22;8328;52.206;21.006;2023-02-28T01:29:19;-1.00;99.90
16437;DHT22;8328;52.206;21.006;2023-02-28T01:31:45;-0.90;99.90
16437;DHT22;8328;52.206;21.006;2023-02-28T01:34:11;-1.00;99.90
16437;DHT22;8328;52.206;21.006;2023-02-28T01:36:37;-1.00;99.90
16437;DHT22;8328;52.206;21.006;2023-02-28T01:39:03;-1.00;99.90
16437;DHT22;8328;52.206;21.006;2023-02-28T01:41:32;-1.70;99.90
16437;DHT22;8328;52.206;21.006;2023-02-28T01:46:46;-1.40;99.90
16437;DHT22;8328;52.206;21.006;2023-02-28T01:49:15;-1.10;99.90
16437;DHT22;8328;52.206;21.006;2023-02-28T01:51:45;-1.10;99.90
16437;DHT22;8328;52.206;21.006;2023-02-28T01:54:24;-1.10;99.90
16437;DHT22;8328;52.206;21.006;2023-02-28T01:57:00;-1.10;99.90
16437;DHT22;8328;52.206;21.006;2023-02-28T01:59:35;-1.20;99.90
16437;DHT22;8328;52.206;21.006;2023-02-28T02:02:02;-1.10;99.90
16437;DHT22;8328;52.206;21.006;2023-02-28T02:04:44;-1.10;99.90
16437;DHT22;8328;52.206;21.006;2023-02-28T02:07:12;-1.00;99.90
16437;DHT22;8328;52.206;21.006;2023-02-28T02:09:42;-1.10;99.90
16437;DHT22;8328;52.206;21.006;2023-02-28T02:12:27;-1.10;99.90
16437;DHT22;8328;52.206;21.006;2023-02-28T02:17:44;-1.10;99.90
16437;DHT22;8328;52.206;21.006;2023-02-28T02:23:14;-1.10;99.90
16437;DHT22;8328;52.206;21.006;2023-02-28T02:36:13;-1.20;99.90
16437;DHT22;8328;52.206;21.006;2023-02-28T02:41:51;-1.20;99.90
16437;DHT22;8328;52.206;21.006;2023-02-28T02:46:51;-1.20;99.90
16437;DHT22;8328;52.206;21.006;2023-02-28T02:49:24;-1.20;99.90
16437;DHT22;8328;52.206;21.006;2023-02-28T02:51:52;-1.20;99.90
16437;DHT22;8328;52.206;21.006;2023-02-28T02:54:25;-1.20;99.90
16437;DHT22;8328;52.206;21.006;2023-02-28T02:56:56;-1.20;99.90
16437;DHT22;8328;52.206;21.006;2023-02-28T02:59:22;-1.30;99.90
16437;DHT22;8328;52.206;21.006;2023-02-28T03:01:52;-1.30;99.90
16437;DHT22;8328;52.206;21.006;2023-02-28T03:04:21;-1.30;99.90
16437;DHT22;8328;52.206;21.006;2023-02-28T03:06:47;-1.30;99.90
16437;DHT22;8328;52.206;21.006;2023-02-28T03:09:13;-1.30;99.90
16437;DHT22;8328;52.206;21.006;2023-02-28T03:11:40;-1.30;99.90
16437;DHT22;8328;52.206;21.006;2023-02-28T03:16:53;-1.30;99.90
16437;DHT22;8328;52.206;21.006;2023-02-28T03:19:47;-1.20;99.90
16437;DHT22;8328;52.206;21.006;2023-02-28T03:22:28;-1.20;99.90
16437;DHT22;8328;52.206;21.006;2023-02-28T03:25:14;-1.20;99.90
16437;DHT22;8328;52.206;21.006;2023-02-28T03:30:52;-1.10;99.90
16437;DHT22;8328;52.206;21.006;2023-02-28T03:33:42;-1.10;99.90
16437;DHT22;8328;52.206;21.006;2023-02-28T03:36:16;-1.10;99.90
16437;DHT22;8328;52.206;21.006;2023-02-28T03:38:45;-1.60;99.90
16437;DHT22;8328;52.206;21.006;2023-02-28T03:41:25;-1.10;99.90
16437;DHT22;8328;52.206;21.006;2023-02-28T03:44:13;-1.10;99.90
16437;DHT22;8328;52.206;21.006;2023-02-28T03:49:34;-1.10;99.90
16437;DHT22;8328;52.206;21.006;2023-02-28T03:52:02;-1.10;99.90
16437;DHT22;8328;52.206;21.006;2023-02-28T03:54:32;-1.10;99.90
16437;DHT22;8328;52.206;21.006;2023-02-28T03:57:04;-1.10;99.90
16437;DHT22;8328;52.206;21.006;2023-02-28T03:59:37;-1.10;99.90
16437;DHT22;8328;52.206;21.006;2023-02-28T04:02:05;-1.10;99.90
16437;DHT22;8328;52.206;21.006;2023-02-28T04:04:31;-1.20;99.90
16437;DHT22;8328;52.206;21.006;2023-02-28T04:07:07;-1.30;99.90
16437;DHT22;8328;52.206;21.006;2023-02-28T04:09:33;-1.30;99.90
16437;DHT22;8328;52.206;21.006;2023-02-28T04:11:59;-1.30;99.90
16437;DHT22;8328;52.206;21.006;2023-02-28T04:14:25;-1.40;99.90
16437;DHT22;8328;52.206;21.006;2023-02-28T04:16:52;-1.20;99.90
16437;DHT22;8328;52.206;21.006;2023-02-28T04:19:18;-1.30;99.90
16437;DHT22;8328;52.206;21.006;2023-02-28T04:21:50;-1.30;99.90
16437;DHT22;8328;52.206;21.006;2023-02-28T04:24:22;-1.40;99.90
16437;DHT22;8328;52.206;21.006;2023-02-28T04:26:50;-1.40;99.90
16437;DHT22;8328;52.206;21.006;2023-02-28T04:29:26;-1.90;99.90
16437;DHT22;8328;52.206;21.006;2023-02-28T04:31:53;-1.20;99.90
16437;DHT22;8328;52.206;21.006;2023-02-28T04:34:20;-1.30;99.90
16437;DHT22;8328;52.206;21.006;2023-02-28T04:36:47;-1.20;99.90
16437;DHT22;8328;52.206;21.006;2023-02-28T04:39:15;-1.20;99.90
16437;DHT22;8328;52.206;21.006;2023-02-28T04:41:44;-1.20;99.90
16437;DHT22;8328;52.206;21.006;2023-02-28T04:44:10;-1.20;99.90
16437;DHT22;8328;52.206;21.006;2023-02-28T04:46:36;-1.20;99.90
16437;DHT22;8328;52.206;21.006;2023-02-28T04:49:02;-1.30;99.90
16437;DHT22;8328;52.206;21.006;2023-02-28T04:51:29;-1.30;99.90
16437;DHT22;8328;52.206;21.006;2023-02-28T04:53:55;-1.30;99.90
16437;DHT22;8328;52.206;21.006;2023-02-28T04:56:21;-1.30;99.90
16437;DHT22;8328;52.206;21.006;2023-02-28T04:58:48;-1.30;99.90
16437;DHT22;8328;52.206;21.006;2023-02-28T05:01:34;-1.30;99.90
16437;DHT22;8328;52.206;21.006;2023-02-28T05:04:03;-1.30;99.90
16437;DHT22;8328;52.206;21.006;2023-02-28T05:06:31;-1.30;99.90
16437;DHT22;8328;52.206;21.006;2023-02-28T05:08:58;-1.30;99.90
16437;DHT22;8328;52.206;21.006;2023-02-28T05:11:29;-1.30;99.90
16437;DHT22;8328;52.206;21.006;2023-02-28T05:14:00;-1.20;99.90
16437;DHT22;8328;52.206;21.006;2023-02-28T05:16:27;-1.20;99.90
16437;DHT22;8328;52.206;21.006;2023-02-28T05:18:52;-1.30;99.90
16437;DHT22;8328;52.206;21.006;2023-02-28T05:23:51;-2.30;99.90
16437;DHT22;8328;52.206;21.006;2023-02-28T05:26:17;-1.20;99.90
16437;DHT22;8328;52.206;21.006;2023-02-28T05:28:42;-1.20;99.90
16437;DHT22;8328;52.206;21.006;2023-02-28T05:31:12;-1.20;99.90
16437;DHT22;8328;52.206;21.006;2023-02-28T05:33:38;-1.20;99.90
16437;DHT22;8328;52.206;21.006;2023-02-28T05:36:04;-1.10;99.90
16437;DHT22;8328;52.206;21.006;2023-02-28T05:38:30;-1.00;99.90
16437;DHT22;8328;52.206;21.006;2023-02-28T05:40:56;-1.00;99.90
16437;DHT22;8328;52.206;21.006;2023-02-28T05:43:23;-1.00;99.90
16437;DHT22;8328;52.206;21.006;2023-02-28T05:45:49;-1.00;99.90
16437;DHT22;8328;52.206;21.006;2023-02-28T05:48:15;-1.00;99.90
16437;DHT22;8328;52.206;21.006;2023-02-28T05:50:42;-0.90;99.90
16437;DHT22;8328;52.206;21.006;2023-02-28T05:53:10;-0.90;99.90
16437;DHT22;8328;52.206;21.006;2023-02-28T05:55:35;-0.80;99.90
16437;DHT22;8328;52.206;21.006;2023-02-28T05:58:03;-0.80;99.90
16437;DHT22;8328;52.206;21.006;2023-02-28T06:00:29;-0.70;99.90
16437;DHT22;8328;52.206;21.006;2023-02-28T06:02:54;0.10;99.90
16437;DHT22;8328;52.206;21.006;2023-02-28T06:05:23;-0.60;99.90
16437;DHT22;8328;52.206;21.006;2023-02-28T06:07:49;-0.60;99.90
16437;DHT22;8328;52.206;21.006;2023-02-28T06:10:16;-0.60;99.90
16437;DHT22;8328;52.206;21.006;2023-02-28T06:12:42;-0.60;99.90
16437;DHT22;8328;52.206;21.006;2023-02-28T06:15:15;-0.50;99.90
16437;DHT22;8328;52.206;21.006;2023-02-28T06:17:42;-0.50;99.90
16437;DHT22;8328;52.206;21.006;2023-02-28T06:20:09;-0.40;99.90
16437;DHT22;8328;52.206;21.006;2023-02-28T06:22:38;0.80;99.90
16437;DHT22;8328;52.206;21.006;2023-02-28T06:25:06;1.50;99.90
16437;DHT22;8328;52.206;21.006;2023-02-28T06:27:34;1.80;99.90
16437;DHT22;8328;52.206;21.006;2023-02-28T06:30:00;1.90;99.90
16437;DHT22;8328;52.206;21.006;2023-02-28T06:32:26;2.00;99.90
16437;DHT22;8328;52.206;21.006;2023-02-28T06:34:52;2.00;99.90
16437;DHT22;8328;52.206;21.006;2023-02-28T06:37:18;1.80;99.90
16437;DHT22;8328;52.206;21.006;2023-02-28T06:39:44;1.80;99.90
16437;DHT22;8328;52.206;21.006;2023-02-28T06:42:10;2.20;99.90
16437;DHT22;8328;52.206;21.006;2023-02-28T06:44:36;2.40;99.90
16437;DHT22;8328;52.206;21.006;2023-02-28T06:47:04;2.10;99.90
16437;DHT22;8328;52.206;21.006;2023-02-28T06:49:35;1.80;99.90
16437;DHT22;8328;52.206;21.006;2023-02-28T06:52:01;1.70;99.90
16437;DHT22;8328;52.206;21.006;2023-02-28T06:54:28;1.70;99.90
16437;DHT22;8328;52.206;21.006;2023-02-28T06:56:53;1.70;99.90
16437;DHT22;8328;52.206;21.006;2023-02-28T06:59:20;1.80;99.90
16437;DHT22;8328;52.206;21.006;2023-02-28T07:01:46;1.90;99.90
16437;DHT22;8328;52.206;21.006;2023-02-28T07:04:13;2.00;99.90
16437;DHT22;8328;52.206;21.006;2023-02-28T07:06:39;2.10;99.90
16437;DHT22;8328;52.206;21.006;2023-02-28T07:09:05;2.10;99.90
16437;DHT22;8328;52.206;21.006;2023-02-28T07:11:31;2.20;99.90
16437;DHT22;8328;52.206;21.006;2023-02-28T07:14:00;2.40;99.90
16437;DHT22;8328;52.206;21.006;2023-02-28T07:16:26;2.50;99.90
16437;DHT22;8328;52.206;21.006;2023-02-28T07:18:53;2.60;99.90
16437;DHT22;8328;52.206;21.006;2023-02-28T07:21:19;2.60;99.90
16437;DHT22;8328;52.206;21.006;2023-02-28T07:23:45;2.80;99.90
16437;DHT22;8328;52.206;21.006;2023-02-28T07:26:14;2.90;99.90
16437;DHT22;8328;52.206;21.006;2023-02-28T07:28:45;3.80;99.90
16437;DHT22;8328;52.206;21.006;2023-02-28T07:31:12;3.20;99.90
16437;DHT22;8328;52.206;21.006;2023-02-28T07:33:40;3.30;99.90
16437;DHT22;8328;52.206;21.006;2023-02-28T07:36:12;3.40;99.90
16437;DHT22;8328;52.206;21.006;2023-02-28T07:38:43;3.40;99.90
16437;DHT22;8328;52.206;21.006;2023-02-28T07:41:10;3.50;99.90
16437;DHT22;8328;52.206;21.006;2023-02-28T07:43:35;3.50;99.90
16437;DHT22;8328;52.206;21.006;2023-02-28T07:46:06;3.60;99.90
16437;DHT22;8328;52.206;21.006;2023-02-28T07:48:32;3.70;99.90
16437;DHT22;8328;52.206;21.006;2023-02-28T07:50:59;3.80;99.90
16437;DHT22;8328;52.206;21.006;2023-02-28T07:53:26;3.90;99.90
16437;DHT22;8328;52.206;21.006;2023-02-28T07:55:57;3.90;99.90
16437;DHT22;8328;52.206;21.006;2023-02-28T07:58:28;3.90;99.90
16437;DHT22;8328;52.206;21.006;2023-02-28T08:00:55;4.00;99.90
16437;DHT22;8328;52.206;21.006;2023-02-28T08:03:23;4.00;99.90
16437;DHT22;8328;52.206;21.006;2023-02-28T08:05:49;4.00;99.80
16437;DHT22;8328;52.206;21.006;2023-02-28T08:08:21;4.00;99.90
16437;DHT22;8328;52.206;21.006;2023-02-28T08:10:46;3.90;97.50
16437;DHT22;8328;52.206;21.006;2023-02-28T08:13:21;3.90;98.10
16437;DHT22;8328;52.206;21.006;2023-02-28T08:15:47;4.00;97.50
16437;DHT22;8328;52.206;21.006;2023-02-28T08:18:13;4.00;96.50
16437;DHT22;8328;52.206;21.006;2023-02-28T08:20:39;4.00;95.70
16437;DHT22;8328;52.206;21.006;2023-02-28T08:23:05;3.80;95.60
16437;DHT22;8328;52.206;21.006;2023-02-28T08:25:31;3.80;96.30
16437;DHT22;8328;52.206;21.006;2023-02-28T08:27:57;3.80;95.10
16437;DHT22;8328;52.206;21.006;2023-02-28T08:30:23;3.50;94.90
16437;DHT22;8328;52.206;21.006;2023-02-28T08:32:48;2.80;95.20
16437;DHT22;8328;52.206;21.006;2023-02-28T08:35:15;3.30;95.50
16437;DHT22;8328;52.206;21.006;2023-02-28T08:37:41;3.20;95.20
16437;DHT22;8328;52.206;21.006;2023-02-28T08:40:08;3.10;95.60
16437;DHT22;8328;52.206;21.006;2023-02-28T08:42:34;3.20;96.40
16437;DHT22;8328;52.206;21.006;2023-02-28T08:44:59;3.40;97.00
16437;DHT22;8328;52.206;21.006;2023-02-28T08:47:26;3.50;96.60
16437;DHT22;8328;52.206;21.006;2023-02-28T08:49:57;3.70;96.20
16437;DHT22;8328;52.206;21.006;2023-02-28T08:52:23;3.80;95.90
16437;DHT22;8328;52.206;21.006;2023-02-28T08:54:49;3.80;95.80
16437;DHT22;8328;52.206;21.006;2023-02-28T08:57:15;3.90;95.60
16437;DHT22;8328;52.206;21.006;2023-02-28T08:59:42;3.90;95.00
16437;DHT22;8328;52.206;21.006;2023-02-28T09:02:10;3.90;94.60
16437;DHT22;8328;52.206;21.006;2023-02-28T09:04:37;3.90;95.00
16437;DHT22;8328;52.206;21.006;2023-02-28T09:07:03;3.90;94.60
16437;DHT22;8328;52.206;21.006;2023-02-28T09:09:30;3.90;94.30
16437;DHT22;8328;52.206;21.006;2023-02-28T09:11:57;4.70;94.30
16437;DHT22;8328;52.206;21.006;2023-02-28T09:14:24;4.00;94.10
16437;DHT22;8328;52.206;21.006;2023-02-28T09:16:49;4.00;94.30
16437;DHT22;8328;52.206;21.006;2023-02-28T09:19:15;4.00;93.80
16437;DHT22;8328;52.206;21.006;2023-02-28T09:21:46;4.00;93.80
16437;DHT22;8328;52.206;21.006;2023-02-28T09:24:12;4.00;93.90
16437;DHT22;8328;52.206;21.006;2023-02-28T09:26:39;4.10;94.00
16437;DHT22;8328;52.206;21.006;2023-02-28T09:29:05;3.90;93.00
16437;DHT22;8328;52.206;21.006;2023-02-28T09:31:32;3.80;93.50
16437;DHT22;8328;52.206;21.006;2023-02-28T09:33:59;3.70;93.40
16437;DHT22;8328;52.206;21.006;2023-02-28T09:36:26;3.50;93.30
16437;DHT22;8328;52.206;21.006;2023-02-28T09:38:53;3.30;93.50
16437;DHT22;8328;52.206;21.006;2023-02-28T09:41:22;3.50;94.20
16437;DHT22;8328;52.206;21.006;2023-02-28T09:44:00;3.80;94.40
16437;DHT22;8328;52.206;21.006;2023-02-28T09:46:43;4.10;93.20
16437;DHT22;8328;52.206;21.006;2023-02-28T09:49:18;4.00;92.80
16437;DHT22;8328;52.206;21.006;2023-02-28T09:52:05;4.00;93.40
16437;DHT22;8328;52.206;21.006;2023-02-28T09:54:36;3.80;92.50
16437;DHT22;8328;52.206;21.006;2023-02-28T09:57:07;3.90;93.30
16437;DHT22;8328;52.206;21.006;2023-02-28T10:02:24;4.00;92.50
16437;DHT22;8328;52.206;21.006;2023-02-28T10:05:20;4.10;93.10
16437;DHT22;8328;52.206;21.006;2023-02-28T10:08:04;4.30;92.40
16437;DHT22;8328;52.206;21.006;2023-02-28T10:10:55;4.40;92.60
16437;DHT22;8328;52.206;21.006;2023-02-28T10:13:53;4.50;92.40
16437;DHT22;8328;52.206;21.006;2023-02-28T10:16:59;4.60;92.20
16437;DHT22;8328;52.206;21.006;2023-02-28T10:22:21;4.60;91.90
16437;DHT22;8328;52.206;21.006;2023-02-28T10:24:50;4.80;91.20
16437;DHT22;8328;52.206;21.006;2023-02-28T10:29:50;4.60;91.20
16437;DHT22;8328;52.206;21.006;2023-02-28T10:32:28;4.80;90.50
16437;DHT22;8328;52.206;21.006;2023-02-28T10:35:18;4.80;90.90
16437;DHT22;8328;52.206;21.006;2023-02-28T10:37:50;4.90;90.40
16437;DHT22;8328;52.206;21.006;2023-02-28T10:42:59;5.00;90.40
16437;DHT22;8328;52.206;21.006;2023-02-28T10:45:26;5.10;90.90
16437;DHT22;8328;52.206;21.006;2023-02-28T10:48:04;5.30;90.00
16437;DHT22;8328;52.206;21.006;2023-02-28T10:50:43;5.50;90.20
16437;DHT22;8328;52.206;21.006;2023-02-28T10:58:30;6.50;85.70
16437;DHT22;8328;52.206;21.006;2023-02-28T11:00:56;6.80;85.50
16437;DHT22;8328;52.206;21.006;2023-02-28T11:03:30;7.10;83.10
16437;DHT22;8328;52.206;21.006;2023-02-28T11:05:56;7.40;82.20
16437;DHT22;8328;52.206;21.006;2023-02-28T11:08:22;7.60;78.40
16437;DHT22;8328;52.206;21.006;2023-02-28T11:11:03;7.50;77.20
16437;DHT22;8328;52.206;21.006;2023-02-28T11:13:36;6.70;75.90
16437;DHT22;8328;52.206;21.006;2023-02-28T11:16:10;7.70;77.50
16437;DHT22;8328;52.206;21.006;2023-02-28T11:18:50;7.20;75.30
16437;DHT22;8328;52.206;21.006;2023-02-28T11:21:26;9.20;74.40
16437;DHT22;8328;52.206;21.006;2023-02-28T11:24:12;8.30;72.20
16437;DHT22;8328;52.206;21.006;2023-02-28T11:26:47;8.80;73.10
16437;DHT22;8328;52.206;21.006;2023-02-28T11:29:20;9.20;69.10
16437;DHT22;8328;52.206;21.006;2023-02-28T11:35:17;9.50;67.00
16437;DHT22;8328;52.206;21.006;2023-02-28T11:37:45;10.00;62.50
16437;DHT22;8328;52.206;21.006;2023-02-28T11:40:16;10.30;60.20
16437;DHT22;8328;52.206;21.006;2023-02-28T11:42:50;10.60;58.10
16437;DHT22;8328;52.206;21.006;2023-02-28T11:45:55;10.70;56.80
16437;DHT22;8328;52.206;21.006;2023-02-28T11:48:50;11.10;56.30
16437;DHT22;8328;52.206;21.006;2023-02-28T11:51:21;11.00;53.70
16437;DHT22;8328;52.206;21.006;2023-02-28T12:00:25;11.50;51.60
16437;DHT22;8328;52.206;21.006;2023-02-28T12:03:14;11.80;50.60
16437;DHT22;8328;52.206;21.006;2023-02-28T12:13:29;11.20;48.20
16437;DHT22;8328;52.206;21.006;2023-02-28T12:24:14;11.90;45.80
16437;DHT22;8328;52.206;21.006;2023-02-28T12:26:47;11.90;44.90
16437;DHT22;8328;52.206;21.006;2023-02-28T12:29:22;11.50;43.70
16437;DHT22;8328;52.206;21.006;2023-02-28T12:32:07;11.10;44.00
16437;DHT22;8328;52.206;21.006;2023-02-28T12:34:49;10.50;44.60
16437;DHT22;8328;52.206;21.006;2023-02-28T12:37:21;9.30;46.20
16437;DHT22;8328;52.206;21.006;2023-02-28T12:39:51;8.70;48.20
16437;DHT22;8328;52.206;21.006;2023-02-28T12:42:33;8.30;49.40
16437;DHT22;8328;52.206;21.006;2023-02-28T12:45:11;7.70;50.60
16437;DHT22;8328;52.206;21.006;2023-02-28T12:47:40;7.30;51.30
16437;DHT22;8328;52.206;21.006;2023-02-28T12:50:09;6.90;52.30
16437;DHT22;8328;52.206;21.006;2023-02-28T12:55:23;6.50;53.80
16437;DHT22;8328;52.206;21.006;2023-02-28T13:03:45;5.90;55.60
16437;DHT22;8328;52.206;21.006;2023-02-28T13:09:16;5.80;56.30
16437;DHT22;8328;52.206;21.006;2023-02-28T13:11:48;5.50;56.60
16437;DHT22;8328;52.206;21.006;2023-02-28T13:19:29;5.40;58.80
16437;DHT22;8328;52.206;21.006;2023-02-28T13:21:57;5.50;59.00
16437;DHT22;8328;52.206;21.006;2023-02-28T13:24:47;5.50;59.00
16437;DHT22;8328;52.206;21.006;2023-02-28T13:29:41;5.40;59.70
16437;DHT22;8328;52.206;21.006;2023-02-28T13:34:35;5.20;59.80
16437;DHT22;8328;52.206;21.006;2023-02-28T13:40:06;5.40;60.00
16437;DHT22;8328;52.206;21.006;2023-02-28T13:47:42;5.10;62.20
16437;DHT22;8328;52.206;21.006;2023-02-28T13:56:03;5.20;63.00
16437;DHT22;8328;52.206;21.006;2023-02-28T13:58:48;5.30;63.20
16437;DHT22;8328;52.206;21.006;2023-02-28T14:07:21;5.20;63.30
16437;DHT22;8328;52.206;21.006;2023-02-28T14:10:06;5.10;64.10
16437;DHT22;8328;52.206;21.006;2023-02-28T14:12:55;5.10;64.60
16437;DHT22;8328;52.206;21.006;2023-02-28T14:15:44;5.10;64.50
16437;DHT22;8328;52.206;21.006;2023-02-28T14:21:08;4.80;65.20
16437;DHT22;8328;52.206;21.006;2023-02-28T14:26:25;4.80;66.30
16437;DHT22;8328;52.206;21.006;2023-02-28T14:28:59;4.70;66.80
16437;DHT22;8328;52.206;21.006;2023-02-28T14:31:36;4.70;67.30
16437;DHT22;8328;52.206;21.006;2023-02-28T14:34:31;4.60;68.10
16437;DHT22;8328;52.206;21.006;2023-02-28T14:37:02;4.60;68.60
16437;DHT22;8328;52.206;21.006;2023-02-28T14:39:30;4.50;68.70
16437;DHT22;8328;52.206;21.006;2023-02-28T14:41:57;4.40;69.40
16437;DHT22;8328;52.206;21.006;2023-02-28T14:44:29;4.50;69.80
16437;DHT22;8328;52.206;21.006;2023-02-28T14:47:00;4.30;70.30
16437;DHT22;8328;52.206;21.006;2023-02-28T14:49:52;4.30;71.00
16437;DHT22;8328;52.206;21.006;2023-02-28T14:52:23;4.20;71.50
16437;DHT22;8328;52.206;21.006;2023-02-28T14:55:00;4.20;71.80
16437;DHT22;8328;52.206;21.006;2023-02-28T14:57:34;4.20;72.50
16437;DHT22;8328;52.206;21.006;2023-02-28T15:00:12;4.10;72.90
16437;DHT22;8328;52.206;21.006;2023-02-28T15:02:40;4.10;73.80
16437;DHT22;8328;52.206;21.006;2023-02-28T15:07:36;4.00;74.60
16437;DHT22;8328;52.206;21.006;2023-02-28T15:10:24;3.80;75.20
16437;DHT22;8328;52.206;21.006;2023-02-28T15:13:06;3.80;76.10
16437;DHT22;8328;52.206;21.006;2023-02-28T15:16:01;3.70;77.00
16437;DHT22;8328;52.206;21.006;2023-02-28T15:18:44;3.80;77.10
16437;DHT22;8328;52.206;21.006;2023-02-28T15:21:15;3.70;77.70
16437;DHT22;8328;52.206;21.006;2023-02-28T15:23:50;3.80;78.40
16437;DHT22;8328;52.206;21.006;2023-02-28T15:26:41;3.70;78.40
16437;DHT22;8328;52.206;21.006;2023-02-28T15:32:01;3.50;79.50
16437;DHT22;8328;52.206;21.006;2023-02-28T15:37:02;3.40;80.60
16437;DHT22;8328;52.206;21.006;2023-02-28T15:39:48;3.40;82.40
16437;DHT22;8328;52.206;21.006;2023-02-28T15:42:23;3.30;81.60
16437;DHT22;8328;52.206;21.006;2023-02-28T15:44:49;3.20;82.40
16437;DHT22;8328;52.206;21.006;2023-02-28T15:52:18;3.30;83.70
16437;DHT22;8328;52.206;21.006;2023-02-28T15:54:49;3.00;83.90
16437;DHT22;8328;52.206;21.006;2023-02-28T15:57:21;3.10;84.50
16437;DHT22;8328;52.206;21.006;2023-02-28T15:59:56;3.00;85.40
16437;DHT22;8328;52.206;21.006;2023-02-28T16:02:37;3.00;85.90
16437;DHT22;8328;52.206;21.006;2023-02-28T16:07:41;2.80;87.60
16437;DHT22;8328;52.206;21.006;2023-02-28T16:10:09;2.70;88.60
16437;DHT22;8328;52.206;21.006;2023-02-28T16:12:38;2.70;89.30
16437;DHT22;8328;52.206;21.006;2023-02-28T16:17:36;2.60;90.30
16437;DHT22;8328;52.206;21.006;2023-02-28T16:20:15;2.40;90.80
16437;DHT22;8328;52.206;21.006;2023-02-28T16:22:42;2.40;91.30
16437;DHT22;8328;52.206;21.006;2023-02-28T16:25:14;2.40;91.60
16437;DHT22;8328;52.206;21.006;2023-02-28T16:27:41;2.30;92.10
16437;DHT22;8328;52.206;21.006;2023-02-28T16:30:23;2.30;92.50
16437;DHT22;8328;52.206;21.006;2023-02-28T16:32:50;2.40;93.00
16437;DHT22;8328;52.206;21.006;2023-02-28T16:35:18;2.30;93.50
16437;DHT22;8328;52.206;21.006;2023-02-28T16:37:46;2.30;94.20
16437;DHT22;8328;52.206;21.006;2023-02-28T16:40:17;2.20;94.60
16437;DHT22;8328;52.206;21.006;2023-02-28T16:42:45;2.10;95.30
16437;DHT22;8328;52.206;21.006;2023-02-28T16:45:22;2.10;96.10
16437;DHT22;8328;52.206;21.006;2023-02-28T16:47:49;2.10;96.60
16437;DHT22;8328;52.206;21.006;2023-02-28T16:50:29;2.10;97.20
16437;DHT22;8328;52.206;21.006;2023-02-28T16:52:56;2.10;97.80
16437;DHT22;8328;52.206;21.006;2023-02-28T16:55:25;2.00;98.40
16437;DHT22;8328;52.206;21.006;2023-02-28T16:57:56;2.20;99.10
16437;DHT22;8328;52.206;21.006;2023-02-28T17:00:24;1.90;99.70
16437;DHT22;8328;52.206;21.006;2023-02-28T17:02:54;1.90;99.90
16437;DHT22;8328;52.206;21.006;2023-02-28T17:05:21;1.90;99.90
16437;DHT22;8328;52.206;21.006;2023-02-28T17:07:47;1.80;99.90
16437;DHT22;8328;52.206;21.006;2023-02-28T17:10:28;1.80;99.90
16437;DHT22;8328;52.206;21.006;2023-02-28T17:12:55;1.80;99.90
16437;DHT22;8328;52.206;21.006;2023-02-28T17:15:21;0.60;99.90
16437;DHT22;8328;52.206;21.006;2023-02-28T17:17:47;1.70;99.90
16437;DHT22;8328;52.206;21.006;2023-02-28T17:20:17;1.70;99.90
16437;DHT22;8328;52.206;21.006;2023-02-28T17:22:43;1.80;99.90
16437;DHT22;8328;52.206;21.006;2023-02-28T17:25:09;1.70;99.90
16437;DHT22;8328;52.206;21.006;2023-02-28T17:27:36;1.60;99.90
16437;DHT22;8328;52.206;21.006;2023-02-28T17:30:16;1.60;99.90
16437;DHT22;8328;52.206;21.006;2023-02-28T17:32:43;1.60;99.90
16437;DHT22;8328;52.206;21.006;2023-02-28T17:35:09;1.60;99.90
16437;DHT22;8328;52.206;21.006;2023-02-28T17:37:35;1.60;99.90
16437;DHT22;8328;52.206;21.006;2023-02-28T17:40:02;1.60;99.90
16437;DHT22;8328;52.206;21.006;2023-02-28T17:42:28;1.60;99.90
16437;DHT22;8328;52.206;21.006;2023-02-28T17:44:53;1.50;99.90
16437;DHT22;8328;52.206;21.006;2023-02-28T17:47:19;1.50;99.90
16437;DHT22;8328;52.206;21.006;2023-02-28T17:49:45;1.50;99.90
16437;DHT22;8328;52.206;21.006;2023-02-28T17:52:11;0.50;99.90
16437;DHT22;8328;52.206;21.006;2023-02-28T17:54:37;1.20;99.90
16437;DHT22;8328;52.206;21.006;2023-02-28T17:57:04;1.50;99.90
16437;DHT22;8328;52.206;21.006;2023-02-28T17:59:30;1.50;99.90
16437;DHT22;8328;52.206;21.006;2023-02-28T18:02:02;1.40;99.90
16437;DHT22;8328;52.206;21.006;2023-02-28T18:04:29;1.40;99.90
16437;DHT22;8328;52.206;21.006;2023-02-28T18:06:55;1.30;99.90
16437;DHT22;8328;52.206;21.006;2023-02-28T18:09:26;1.40;99.90
16437;DHT22;8328;52.206;21.006;2023-02-28T18:11:53;1.30;99.90
16437;DHT22;8328;52.206;21.006;2023-02-28T18:14:22;1.30;99.90
16437;DHT22;8328;52.206;21.006;2023-02-28T18:16:49;1.30;99.90
16437;DHT22;8328;52.206;21.006;2023-02-28T18:19:16;1.30;99.90
16437;DHT22;8328;52.206;21.006;2023-02-28T18:21:48;1.30;99.90
16437;DHT22;8328;52.206;21.006;2023-02-28T18:24:15;1.30;99.90